Atlantic, PA

10:58 AM EST on November 27, 2014 (GMT -0500)
Port Meadville | Change Station
CLOSE
Current Station
Airport
Location: Meadville,
Elevation: 1401 ft
Nearby Weather Stations

Elev 1401 ft 41.63 °N, 80.21 °W | Updated 5 minutes ago

Snow
Snow
33 °F
Feels Like 30 °F
N
4
Wind Variable Wind from West

Today
High -- | Low -- °F
--% Chance of Precip.
Yesterday
High -- | Low -- °F
Precip. -- in
7:23 AM 4:53 PM
Waxing Crescent, 30% visible
Pressure 30.08 in
Visibility 10.0 miles
Clouds Scattered Clouds 1900 ft
Mostly Cloudy 2500 ft
Overcast 5500 ft
Windchill 30 °F
Dew Point 23 °F
Humidity 66%
Rainfall 0.00 in
Snow Depth Not available.
UV 1 out of 12
Pollen .10 out of 12
Air Quality Not available.
Flu Activity Not available.
METAR KGKJ 271553Z AUTO 27003KT 10SM SCT019 BKN025 OVC055 01/M05 A3004 RMK AO2 SLP186 T00061050 TSNO

More Conditions Fewer Conditions

Pressure 30.08 in
Visibility 10.0 miles
Clouds Scattered Clouds 1900 ft
Mostly Cloudy 2500 ft
Overcast 5500 ft
Windchill 30 °F
Dew Point 23 °F
Humidity 66%
Rainfall 0.00 in
Snow Depth Not available.
UV 1 out of 12
Pollen .10 out of 12
Air Quality Not available.
Flu Activity Not available.
METAR KGKJ 271553Z AUTO 27003KT 10SM SCT019 BKN025 OVC055 01/M05 A3004 RMK AO2 SLP186 T00061050 TSNO

More Conditions Fewer Conditions

Nowcast | as of 9:09 am EST on November 27, 2014

Snow showers will continue to develop through 11am. Movement of the snow will be southeast at 20 mph. Some of the locations that will be affected include Erie...Edinboro... Albion...Union City...Linesville...Meadville and Cambridge Springs. Snowfall accumulations of around half an inch are expected. Untreated roads will become snow covered and slick in spots. Drive with caution and allow extra time to reach your destination.

×

10-Day Weather Forecast

Almanac

Astronomy

Nov. 27, 2014 Rise Set
Actual Time
Civil Twilight
Nautical Twilight
Astronomical Twilight
Moon
Length of Visible Light
Length of Day
Tomorrow will be .
, % of the Moon is Illuminated

Today's Extremes

State Highs State Lows

Community

WunderPhotos

Upload Photos

1,774,019 photos uploaded!

WunderBlogs® & News

Nearby

Air Quality

  Air Quality AQ Index Pollutant
Not available.

Snow Depth

Station Depth Elevation

Earthquake Activity

City Distance Mag. Time & Date
Minimum magnitude displayed is 2.5.

Coastal Water Temperatures

Place Temperature

Nearby Weather Stations